sensor_id;sensor_type;location;lat;lon;timestamp;P1;durP1;ratioP1;P2;durP2;ratioP2
48853;SDS011;34673;52.808;17.856;2023-07-16T00:01:20;6.65;;;4.03;;
48853;SDS011;34673;52.808;17.856;2023-07-16T00:03:48;7.15;;;3.90;;
48853;SDS011;34673;52.808;17.856;2023-07-16T00:06:15;7.18;;;4.15;;
48853;SDS011;34673;52.808;17.856;2023-07-16T00:08:42;8.65;;;4.40;;
48853;SDS011;34673;52.808;17.856;2023-07-16T00:11:10;7.57;;;4.28;;
48853;SDS011;34673;52.808;17.856;2023-07-16T00:13:37;7.93;;;4.25;;
48853;SDS011;34673;52.808;17.856;2023-07-16T00:16:04;8.18;;;4.53;;
48853;SDS011;34673;52.808;17.856;2023-07-16T00:18:31;9.90;;;4.07;;
48853;SDS011;34673;52.808;17.856;2023-07-16T00:20:59;7.55;;;4.50;;
48853;SDS011;34673;52.808;17.856;2023-07-16T00:23:26;8.13;;;4.00;;
48853;SDS011;34673;52.808;17.856;2023-07-16T00:25:53;12.00;;;4.32;;
48853;SDS011;34673;52.808;17.856;2023-07-16T00:28:20;9.13;;;4.75;;
48853;SDS011;34673;52.808;17.856;2023-07-16T00:30:47;8.90;;;4.93;;
48853;SDS011;34673;52.808;17.856;2023-07-16T00:33:15;6.45;;;4.68;;
48853;SDS011;34673;52.808;17.856;2023-07-16T00:35:48;8.23;;;5.07;;
48853;SDS011;34673;52.808;17.856;2023-07-16T00:38:17;9.07;;;5.22;;
48853;SDS011;34673;52.808;17.856;2023-07-16T00:40:45;9.38;;;5.68;;
48853;SDS011;34673;52.808;17.856;2023-07-16T00:43:13;10.40;;;6.30;;
48853;SDS011;34673;52.808;17.856;2023-07-16T00:45:41;8.95;;;6.90;;
48853;SDS011;34673;52.808;17.856;2023-07-16T00:48:11;11.10;;;7.10;;
48853;SDS011;34673;52.808;17.856;2023-07-16T00:50:39;12.50;;;8.10;;
48853;SDS011;34673;52.808;17.856;2023-07-16T00:53:08;10.65;;;7.70;;
48853;SDS011;34673;52.808;17.856;2023-07-16T00:55:36;9.20;;;6.93;;
48853;SDS011;34673;52.808;17.856;2023-07-16T00:58:05;11.43;;;6.80;;
48853;SDS011;34673;52.808;17.856;2023-07-16T01:00:34;8.68;;;6.60;;
48853;SDS011;34673;52.808;17.856;2023-07-16T01:03:03;8.25;;;6.25;;
48853;SDS011;34673;52.808;17.856;2023-07-16T01:08:32;11.25;;;6.70;;
48853;SDS011;34673;52.808;17.856;2023-07-16T01:10:59;7.30;;;5.38;;
48853;SDS011;34673;52.808;17.856;2023-07-16T01:13:32;8.45;;;5.30;;
48853;SDS011;34673;52.808;17.856;2023-07-16T01:15:59;6.93;;;5.53;;
48853;SDS011;34673;52.808;17.856;2023-07-16T01:18:28;11.77;;;5.70;;
48853;SDS011;34673;52.808;17.856;2023-07-16T01:20:55;8.65;;;5.40;;
48853;SDS011;34673;52.808;17.856;2023-07-16T01:23:27;7.38;;;5.00;;
48853;SDS011;34673;52.808;17.856;2023-07-16T01:29:41;9.60;;;5.18;;
48853;SDS011;34673;52.808;17.856;2023-07-16T01:32:11;10.73;;;4.90;;
48853;SDS011;34673;52.808;17.856;2023-07-16T01:34:38;7.18;;;5.13;;
48853;SDS011;34673;52.808;17.856;2023-07-16T01:37:07;7.22;;;4.63;;
48853;SDS011;34673;52.808;17.856;2023-07-16T01:39:35;7.38;;;4.93;;
48853;SDS011;34673;52.808;17.856;2023-07-16T01:42:02;8.23;;;4.93;;
48853;SDS011;34673;52.808;17.856;2023-07-16T01:44:30;8.07;;;4.80;;
48853;SDS011;34673;52.808;17.856;2023-07-16T01:49:33;8.25;;;5.38;;
48853;SDS011;34673;52.808;17.856;2023-07-16T01:52:03;7.38;;;5.47;;
48853;SDS011;34673;52.808;17.856;2023-07-16T01:54:32;10.43;;;4.95;;
48853;SDS011;34673;52.808;17.856;2023-07-16T01:56:59;9.07;;;4.80;;
48853;SDS011;34673;52.808;17.856;2023-07-16T01:59:27;6.38;;;4.55;;
48853;SDS011;34673;52.808;17.856;2023-07-16T02:01:55;10.60;;;4.70;;
48853;SDS011;34673;52.808;17.856;2023-07-16T02:04:22;7.47;;;4.85;;
48853;SDS011;34673;52.808;17.856;2023-07-16T02:06:49;6.57;;;4.32;;
48853;SDS011;34673;52.808;17.856;2023-07-16T02:09:20;6.80;;;4.70;;
48853;SDS011;34673;52.808;17.856;2023-07-16T02:11:47;9.32;;;5.30;;
48853;SDS011;34673;52.808;17.856;2023-07-16T02:14:15;6.97;;;5.03;;
48853;SDS011;34673;52.808;17.856;2023-07-16T02:16:42;9.70;;;5.18;;
48853;SDS011;34673;52.808;17.856;2023-07-16T02:19:10;8.48;;;5.03;;
48853;SDS011;34673;52.808;17.856;2023-07-16T02:21:37;10.20;;;5.10;;
48853;SDS011;34673;52.808;17.856;2023-07-16T02:24:04;10.70;;;5.20;;
48853;SDS011;34673;52.808;17.856;2023-07-16T02:26:32;9.05;;;4.90;;
48853;SDS011;34673;52.808;17.856;2023-07-16T02:28:59;7.70;;;4.80;;
48853;SDS011;34673;52.808;17.856;2023-07-16T02:31:26;8.70;;;5.00;;
48853;SDS011;34673;52.808;17.856;2023-07-16T02:33:54;7.75;;;5.18;;
48853;SDS011;34673;52.808;17.856;2023-07-16T02:36:21;7.72;;;4.95;;
48853;SDS011;34673;52.808;17.856;2023-07-16T02:38:48;7.95;;;5.05;;
48853;SDS011;34673;52.808;17.856;2023-07-16T02:41:15;8.00;;;5.40;;
48853;SDS011;34673;52.808;17.856;2023-07-16T02:43:45;7.82;;;5.18;;
48853;SDS011;34673;52.808;17.856;2023-07-16T02:46:13;9.63;;;5.75;;
48853;SDS011;34673;52.808;17.856;2023-07-16T02:48:40;11.90;;;5.25;;
48853;SDS011;34673;52.808;17.856;2023-07-16T02:51:08;8.35;;;5.15;;
48853;SDS011;34673;52.808;17.856;2023-07-16T02:53:35;7.10;;;5.18;;
48853;SDS011;34673;52.808;17.856;2023-07-16T02:56:02;10.18;;;5.13;;
48853;SDS011;34673;52.808;17.856;2023-07-16T02:58:30;9.10;;;5.50;;
48853;SDS011;34673;52.808;17.856;2023-07-16T03:00:59;7.60;;;5.10;;
48853;SDS011;34673;52.808;17.856;2023-07-16T03:03:26;10.63;;;5.18;;
48853;SDS011;34673;52.808;17.856;2023-07-16T03:06:01;8.05;;;5.22;;
48853;SDS011;34673;52.808;17.856;2023-07-16T03:08:29;8.07;;;5.43;;
48853;SDS011;34673;52.808;17.856;2023-07-16T03:10:58;9.57;;;5.13;;
48853;SDS011;34673;52.808;17.856;2023-07-16T03:13:25;8.18;;;5.40;;
48853;SDS011;34673;52.808;17.856;2023-07-16T03:15:53;9.07;;;5.22;;
48853;SDS011;34673;52.808;17.856;2023-07-16T03:18:20;8.32;;;5.72;;
48853;SDS011;34673;52.808;17.856;2023-07-16T03:20:47;8.45;;;5.30;;
48853;SDS011;34673;52.808;17.856;2023-07-16T03:23:14;9.35;;;5.45;;
48853;SDS011;34673;52.808;17.856;2023-07-16T03:25:42;8.60;;;5.57;;
48853;SDS011;34673;52.808;17.856;2023-07-16T03:28:09;10.15;;;5.10;;
48853;SDS011;34673;52.808;17.856;2023-07-16T03:30:36;9.70;;;5.43;;
48853;SDS011;34673;52.808;17.856;2023-07-16T03:33:04;7.50;;;5.20;;
48853;SDS011;34673;52.808;17.856;2023-07-16T03:35:33;7.60;;;5.60;;
48853;SDS011;34673;52.808;17.856;2023-07-16T03:38:00;7.38;;;5.35;;
48853;SDS011;34673;52.808;17.856;2023-07-16T03:40:28;10.38;;;5.28;;
48853;SDS011;34673;52.808;17.856;2023-07-16T03:42:56;6.57;;;4.95;;
48853;SDS011;34673;52.808;17.856;2023-07-16T03:45:23;9.63;;;5.78;;
48853;SDS011;34673;52.808;17.856;2023-07-16T03:47:51;9.35;;;5.55;;
48853;SDS011;34673;52.808;17.856;2023-07-16T03:50:18;14.00;;;5.88;;
48853;SDS011;34673;52.808;17.856;2023-07-16T03:52:45;8.85;;;4.93;;
48853;SDS011;34673;52.808;17.856;2023-07-16T03:55:13;8.05;;;5.00;;
48853;SDS011;34673;52.808;17.856;2023-07-16T03:57:40;9.32;;;5.72;;
48853;SDS011;34673;52.808;17.856;2023-07-16T04:00:09;10.02;;;5.13;;
48853;SDS011;34673;52.808;17.856;2023-07-16T04:02:40;8.10;;;5.78;;
48853;SDS011;34673;52.808;17.856;2023-07-16T04:05:12;8.32;;;5.60;;
48853;SDS011;34673;52.808;17.856;2023-07-16T04:07:39;8.57;;;5.10;;
48853;SDS011;34673;52.808;17.856;2023-07-16T04:10:06;8.38;;;5.50;;
48853;SDS011;34673;52.808;17.856;2023-07-16T04:12:34;9.13;;;5.47;;
48853;SDS011;34673;52.808;17.856;2023-07-16T04:15:06;8.80;;;5.50;;
48853;SDS011;34673;52.808;17.856;2023-07-16T04:17:35;12.13;;;4.97;;
48853;SDS011;34673;52.808;17.856;2023-07-16T04:20:02;8.70;;;4.88;;
48853;SDS011;34673;52.808;17.856;2023-07-16T04:22:30;10.35;;;5.53;;
48853;SDS011;34673;52.808;17.856;2023-07-16T04:24:57;7.25;;;4.78;;
48853;SDS011;34673;52.808;17.856;2023-07-16T04:27:25;7.07;;;5.55;;
48853;SDS011;34673;52.808;17.856;2023-07-16T04:29:52;11.35;;;5.13;;
48853;SDS011;34673;52.808;17.856;2023-07-16T04:32:19;6.60;;;4.90;;
48853;SDS011;34673;52.808;17.856;2023-07-16T04:34:46;9.45;;;5.20;;
48853;SDS011;34673;52.808;17.856;2023-07-16T04:37:13;8.85;;;4.53;;
48853;SDS011;34673;52.808;17.856;2023-07-16T04:39:41;7.68;;;4.55;;
48853;SDS011;34673;52.808;17.856;2023-07-16T04:42:08;8.25;;;4.78;;
48853;SDS011;34673;52.808;17.856;2023-07-16T04:44:35;7.18;;;4.57;;
48853;SDS011;34673;52.808;17.856;2023-07-16T04:47:02;6.05;;;4.28;;
48853;SDS011;34673;52.808;17.856;2023-07-16T04:49:30;8.02;;;4.75;;
48853;SDS011;34673;52.808;17.856;2023-07-16T04:51:57;9.07;;;4.28;;
48853;SDS011;34673;52.808;17.856;2023-07-16T04:54:24;7.45;;;4.40;;
48853;SDS011;34673;52.808;17.856;2023-07-16T04:56:51;7.38;;;4.20;;
48853;SDS011;34673;52.808;17.856;2023-07-16T04:59:18;7.47;;;4.47;;
48853;SDS011;34673;52.808;17.856;2023-07-16T05:01:45;6.07;;;4.30;;
48853;SDS011;34673;52.808;17.856;2023-07-16T05:04:13;8.55;;;4.50;;
48853;SDS011;34673;52.808;17.856;2023-07-16T05:06:40;8.80;;;4.28;;
48853;SDS011;34673;52.808;17.856;2023-07-16T05:09:07;7.95;;;4.22;;
48853;SDS011;34673;52.808;17.856;2023-07-16T05:11:34;8.75;;;4.32;;
48853;SDS011;34673;52.808;17.856;2023-07-16T05:14:01;7.35;;;4.18;;
48853;SDS011;34673;52.808;17.856;2023-07-16T05:16:29;8.65;;;4.15;;
48853;SDS011;34673;52.808;17.856;2023-07-16T05:18:56;8.48;;;4.45;;
48853;SDS011;34673;52.808;17.856;2023-07-16T05:21:23;6.28;;;4.20;;
48853;SDS011;34673;52.808;17.856;2023-07-16T05:23:50;7.25;;;4.18;;
48853;SDS011;34673;52.808;17.856;2023-07-16T05:26:18;9.90;;;4.55;;
48853;SDS011;34673;52.808;17.856;2023-07-16T05:28:45;8.73;;;4.45;;
48853;SDS011;34673;52.808;17.856;2023-07-16T05:31:12;9.45;;;3.88;;
48853;SDS011;34673;52.808;17.856;2023-07-16T05:33:40;6.30;;;4.10;;
48853;SDS011;34673;52.808;17.856;2023-07-16T05:36:07;10.18;;;4.53;;
48853;SDS011;34673;52.808;17.856;2023-07-16T05:38:34;5.60;;;4.00;;
48853;SDS011;34673;52.808;17.856;2023-07-16T05:41:02;5.82;;;4.28;;
48853;SDS011;34673;52.808;17.856;2023-07-16T05:43:30;6.47;;;4.07;;
48853;SDS011;34673;52.808;17.856;2023-07-16T05:45:58;5.75;;;3.85;;
48853;SDS011;34673;52.808;17.856;2023-07-16T05:48:25;10.85;;;3.90;;
48853;SDS011;34673;52.808;17.856;2023-07-16T05:50:52;7.13;;;3.90;;
48853;SDS011;34673;52.808;17.856;2023-07-16T05:53:20;9.88;;;4.28;;
48853;SDS011;34673;52.808;17.856;2023-07-16T05:55:47;6.57;;;3.90;;
48853;SDS011;34673;52.808;17.856;2023-07-16T05:58:16;5.50;;;3.97;;
48853;SDS011;34673;52.808;17.856;2023-07-16T06:00:43;7.68;;;4.40;;
48853;SDS011;34673;52.808;17.856;2023-07-16T06:03:11;6.90;;;3.70;;
48853;SDS011;34673;52.808;17.856;2023-07-16T06:05:38;4.85;;;4.13;;
48853;SDS011;34673;52.808;17.856;2023-07-16T06:08:05;5.57;;;3.72;;
48853;SDS011;34673;52.808;17.856;2023-07-16T06:10:33;5.97;;;3.78;;
48853;SDS011;34673;52.808;17.856;2023-07-16T06:13:01;5.82;;;3.70;;
48853;SDS011;34673;52.808;17.856;2023-07-16T06:15:28;5.88;;;3.67;;
48853;SDS011;34673;52.808;17.856;2023-07-16T06:17:55;6.60;;;3.17;;
48853;SDS011;34673;52.808;17.856;2023-07-16T06:20:23;8.60;;;3.55;;
48853;SDS011;34673;52.808;17.856;2023-07-16T06:22:50;16.55;;;3.90;;
48853;SDS011;34673;52.808;17.856;2023-07-16T06:25:17;5.85;;;3.10;;
48853;SDS011;34673;52.808;17.856;2023-07-16T06:27:45;6.18;;;3.30;;
48853;SDS011;34673;52.808;17.856;2023-07-16T06:30:12;7.03;;;3.17;;
48853;SDS011;34673;52.808;17.856;2023-07-16T06:32:39;6.35;;;2.97;;
48853;SDS011;34673;52.808;17.856;2023-07-16T06:35:07;6.10;;;3.10;;
48853;SDS011;34673;52.808;17.856;2023-07-16T06:37:35;6.43;;;2.88;;
48853;SDS011;34673;52.808;17.856;2023-07-16T06:40:02;4.55;;;2.70;;
48853;SDS011;34673;52.808;17.856;2023-07-16T06:42:30;4.57;;;2.80;;
48853;SDS011;34673;52.808;17.856;2023-07-16T06:44:58;6.38;;;2.92;;
48853;SDS011;34673;52.808;17.856;2023-07-16T06:47:25;3.45;;;2.70;;
48853;SDS011;34673;52.808;17.856;2023-07-16T06:49:52;5.40;;;2.70;;
48853;SDS011;34673;52.808;17.856;2023-07-16T06:52:20;5.50;;;3.10;;
48853;SDS011;34673;52.808;17.856;2023-07-16T06:54:48;5.20;;;2.78;;
48853;SDS011;34673;52.808;17.856;2023-07-16T06:57:15;6.65;;;3.00;;
48853;SDS011;34673;52.808;17.856;2023-07-16T06:59:43;4.28;;;2.95;;
48853;SDS011;34673;52.808;17.856;2023-07-16T07:02:11;5.70;;;2.70;;
48853;SDS011;34673;52.808;17.856;2023-07-16T07:04:38;6.60;;;2.85;;
48853;SDS011;34673;52.808;17.856;2023-07-16T07:07:06;4.32;;;2.70;;
48853;SDS011;34673;52.808;17.856;2023-07-16T07:09:33;9.50;;;2.90;;
48853;SDS011;34673;52.808;17.856;2023-07-16T07:12:01;4.15;;;2.33;;
48853;SDS011;34673;52.808;17.856;2023-07-16T07:14:28;4.13;;;2.35;;
48853;SDS011;34673;52.808;17.856;2023-07-16T07:16:55;4.07;;;2.05;;
48853;SDS011;34673;52.808;17.856;2023-07-16T07:19:23;4.85;;;1.88;;
48853;SDS011;34673;52.808;17.856;2023-07-16T07:21:50;3.88;;;2.08;;
48853;SDS011;34673;52.808;17.856;2023-07-16T07:24:17;3.70;;;1.88;;
48853;SDS011;34673;52.808;17.856;2023-07-16T07:26:44;3.47;;;1.80;;
48853;SDS011;34673;52.808;17.856;2023-07-16T07:29:11;2.80;;;2.00;;
48853;SDS011;34673;52.808;17.856;2023-07-16T07:31:40;5.30;;;2.03;;
48853;SDS011;34673;52.808;17.856;2023-07-16T07:34:07;2.88;;;1.95;;
48853;SDS011;34673;52.808;17.856;2023-07-16T07:36:35;5.20;;;1.80;;
48853;SDS011;34673;52.808;17.856;2023-07-16T07:39:02;3.53;;;2.20;;
48853;SDS011;34673;52.808;17.856;2023-07-16T07:41:29;4.28;;;2.03;;
48853;SDS011;34673;52.808;17.856;2023-07-16T07:43:56;5.82;;;2.00;;
48853;SDS011;34673;52.808;17.856;2023-07-16T07:46:24;4.47;;;1.90;;
48853;SDS011;34673;52.808;17.856;2023-07-16T07:48:51;3.80;;;1.88;;
48853;SDS011;34673;52.808;17.856;2023-07-16T07:51:18;5.40;;;1.90;;
48853;SDS011;34673;52.808;17.856;2023-07-16T07:53:45;3.00;;;1.75;;
48853;SDS011;34673;52.808;17.856;2023-07-16T07:56:13;2.45;;;1.70;;
48853;SDS011;34673;52.808;17.856;2023-07-16T07:58:41;2.88;;;1.60;;
48853;SDS011;34673;52.808;17.856;2023-07-16T08:01:08;3.72;;;1.50;;
48853;SDS011;34673;52.808;17.856;2023-07-16T08:03:35;2.33;;;1.50;;
48853;SDS011;34673;52.808;17.856;2023-07-16T08:06:03;2.85;;;1.80;;
48853;SDS011;34673;52.808;17.856;2023-07-16T08:08:30;5.45;;;1.70;;
48853;SDS011;34673;52.808;17.856;2023-07-16T08:10:58;5.40;;;1.60;;
48853;SDS011;34673;52.808;17.856;2023-07-16T08:13:25;3.35;;;1.80;;
48853;SDS011;34673;52.808;17.856;2023-07-16T08:15:52;2.38;;;1.50;;
48853;SDS011;34673;52.808;17.856;2023-07-16T08:18:19;3.83;;;1.77;;
48853;SDS011;34673;52.808;17.856;2023-07-16T08:20:47;5.65;;;1.42;;
48853;SDS011;34673;52.808;17.856;2023-07-16T08:23:14;3.25;;;1.20;;
48853;SDS011;34673;52.808;17.856;2023-07-16T08:25:42;2.28;;;1.17;;
48853;SDS011;34673;52.808;17.856;2023-07-16T08:28:09;4.15;;;1.42;;
48853;SDS011;34673;52.808;17.856;2023-07-16T08:30:38;3.90;;;1.55;;
48853;SDS011;34673;52.808;17.856;2023-07-16T08:33:05;4.72;;;1.45;;
48853;SDS011;34673;52.808;17.856;2023-07-16T08:35:33;3.22;;;1.50;;
48853;SDS011;34673;52.808;17.856;2023-07-16T08:38:01;2.20;;;1.35;;
48853;SDS011;34673;52.808;17.856;2023-07-16T08:40:28;2.45;;;1.30;;
48853;SDS011;34673;52.808;17.856;2023-07-16T08:42:55;3.67;;;1.60;;
48853;SDS011;34673;52.808;17.856;2023-07-16T08:45:23;2.80;;;1.50;;
48853;SDS011;34673;52.808;17.856;2023-07-16T08:47:55;3.50;;;1.60;;
48853;SDS011;34673;52.808;17.856;2023-07-16T08:50:22;3.38;;;1.42;;
48853;SDS011;34673;52.808;17.856;2023-07-16T08:52:52;3.75;;;1.40;;
48853;SDS011;34673;52.808;17.856;2023-07-16T08:55:21;2.65;;;1.42;;
48853;SDS011;34673;52.808;17.856;2023-07-16T08:57:48;2.67;;;1.50;;
48853;SDS011;34673;52.808;17.856;2023-07-16T09:00:16;3.63;;;1.45;;
48853;SDS011;34673;52.808;17.856;2023-07-16T09:02:45;3.78;;;1.50;;
48853;SDS011;34673;52.808;17.856;2023-07-16T09:05:12;2.40;;;1.58;;
48853;SDS011;34673;52.808;17.856;2023-07-16T09:08:02;4.78;;;1.60;;
48853;SDS011;34673;52.808;17.856;2023-07-16T09:10:29;2.55;;;1.60;;
48853;SDS011;34673;52.808;17.856;2023-07-16T09:12:57;2.63;;;1.30;;
48853;SDS011;34673;52.808;17.856;2023-07-16T09:15:28;3.55;;;1.60;;
48853;SDS011;34673;52.808;17.856;2023-07-16T09:17:55;2.28;;;1.42;;
48853;SDS011;34673;52.808;17.856;2023-07-16T09:20:23;3.25;;;1.45;;
48853;SDS011;34673;52.808;17.856;2023-07-16T09:22:53;2.90;;;1.48;;
48853;SDS011;34673;52.808;17.856;2023-07-16T09:25:30;3.60;;;1.52;;
48853;SDS011;34673;52.808;17.856;2023-07-16T09:28:03;3.58;;;1.45;;
48853;SDS011;34673;52.808;17.856;2023-07-16T09:30:31;3.72;;;1.30;;
48853;SDS011;34673;52.808;17.856;2023-07-16T09:33:10;3.45;;;1.40;;
48853;SDS011;34673;52.808;17.856;2023-07-16T09:35:40;4.28;;;1.88;;
48853;SDS011;34673;52.808;17.856;2023-07-16T09:38:08;5.40;;;1.55;;
48853;SDS011;34673;52.808;17.856;2023-07-16T09:40:36;10.77;;;1.90;;
48853;SDS011;34673;52.808;17.856;2023-07-16T09:43:05;3.88;;;1.45;;
48853;SDS011;34673;52.808;17.856;2023-07-16T09:45:33;2.90;;;1.40;;
48853;SDS011;34673;52.808;17.856;2023-07-16T09:48:02;3.97;;;1.52;;
48853;SDS011;34673;52.808;17.856;2023-07-16T09:50:31;3.05;;;1.60;;
48853;SDS011;34673;52.808;17.856;2023-07-16T09:53:00;3.75;;;1.77;;
48853;SDS011;34673;52.808;17.856;2023-07-16T09:55:33;3.55;;;1.58;;
48853;SDS011;34673;52.808;17.856;2023-07-16T09:58:04;4.07;;;1.50;;
48853;SDS011;34673;52.808;17.856;2023-07-16T10:00:35;4.72;;;1.50;;
48853;SDS011;34673;52.808;17.856;2023-07-16T10:05:37;3.45;;;1.50;;
48853;SDS011;34673;52.808;17.856;2023-07-16T10:08:14;3.17;;;1.60;;
48853;SDS011;34673;52.808;17.856;2023-07-16T10:10:43;2.22;;;1.63;;
48853;SDS011;34673;52.808;17.856;2023-07-16T10:13:15;2.70;;;1.60;;
48853;SDS011;34673;52.808;17.856;2023-07-16T10:15:57;6.13;;;1.60;;
48853;SDS011;34673;52.808;17.856;2023-07-16T10:18:29;3.22;;;1.65;;
48853;SDS011;34673;52.808;17.856;2023-07-16T10:23:40;3.55;;;1.65;;
48853;SDS011;34673;52.808;17.856;2023-07-16T10:26:09;3.45;;;1.98;;
48853;SDS011;34673;52.808;17.856;2023-07-16T10:28:44;2.70;;;1.70;;
48853;SDS011;34673;52.808;17.856;2023-07-16T10:31:21;3.63;;;1.73;;
48853;SDS011;34673;52.808;17.856;2023-07-16T10:33:57;3.15;;;1.73;;
48853;SDS011;34673;52.808;17.856;2023-07-16T10:36:26;2.92;;;1.55;;
48853;SDS011;34673;52.808;17.856;2023-07-16T10:38:53;3.20;;;1.75;;
48853;SDS011;34673;52.808;17.856;2023-07-16T10:41:20;3.65;;;1.90;;
48853;SDS011;34673;52.808;17.856;2023-07-16T10:43:47;2.60;;;1.80;;
48853;SDS011;34673;52.808;17.856;2023-07-16T10:46:15;3.90;;;2.17;;
48853;SDS011;34673;52.808;17.856;2023-07-16T10:48:46;3.15;;;1.70;;
48853;SDS011;34673;52.808;17.856;2023-07-16T10:51:14;2.85;;;1.75;;
48853;SDS011;34673;52.808;17.856;2023-07-16T10:53:43;3.08;;;1.90;;
48853;SDS011;34673;52.808;17.856;2023-07-16T10:56:10;3.03;;;1.77;;
48853;SDS011;34673;52.808;17.856;2023-07-16T10:58:38;3.28;;;1.73;;
48853;SDS011;34673;52.808;17.856;2023-07-16T11:01:08;2.70;;;1.70;;
48853;SDS011;34673;52.808;17.856;2023-07-16T11:03:36;3.80;;;2.10;;
48853;SDS011;34673;52.808;17.856;2023-07-16T11:06:06;2.63;;;1.70;;
48853;SDS011;34673;52.808;17.856;2023-07-16T11:08:35;3.75;;;2.03;;
48853;SDS011;34673;52.808;17.856;2023-07-16T11:11:02;2.83;;;1.83;;
48853;SDS011;34673;52.808;17.856;2023-07-16T11:13:33;4.50;;;1.70;;
48853;SDS011;34673;52.808;17.856;2023-07-16T11:16:10;3.92;;;1.83;;
48853;SDS011;34673;52.808;17.856;2023-07-16T11:18:37;2.33;;;1.60;;
48853;SDS011;34673;52.808;17.856;2023-07-16T11:21:05;3.53;;;1.75;;
48853;SDS011;34673;52.808;17.856;2023-07-16T11:23:35;3.60;;;1.60;;
48853;SDS011;34673;52.808;17.856;2023-07-16T11:26:03;2.10;;;1.40;;
48853;SDS011;34673;52.808;17.856;2023-07-16T11:28:40;2.90;;;1.88;;
48853;SDS011;34673;52.808;17.856;2023-07-16T11:31:15;3.25;;;1.92;;
48853;SDS011;34673;52.808;17.856;2023-07-16T11:33:44;3.05;;;2.00;;
48853;SDS011;34673;52.808;17.856;2023-07-16T11:36:12;2.55;;;1.70;;
48853;SDS011;34673;52.808;17.856;2023-07-16T11:38:40;3.75;;;1.73;;
48853;SDS011;34673;52.808;17.856;2023-07-16T11:41:07;2.25;;;1.60;;
48853;SDS011;34673;52.808;17.856;2023-07-16T11:43:35;2.60;;;1.60;;
48853;SDS011;34673;52.808;17.856;2023-07-16T11:46:05;2.30;;;1.60;;
48853;SDS011;34673;52.808;17.856;2023-07-16T11:48:42;2.35;;;1.45;;
48853;SDS011;34673;52.808;17.856;2023-07-16T11:51:09;2.75;;;1.60;;
48853;SDS011;34673;52.808;17.856;2023-07-16T11:53:36;2.90;;;1.67;;
48853;SDS011;34673;52.808;17.856;2023-07-16T11:56:05;2.22;;;1.27;;
48853;SDS011;34673;52.808;17.856;2023-07-16T11:58:33;2.80;;;1.60;;
48853;SDS011;34673;52.808;17.856;2023-07-16T12:01:00;2.88;;;1.70;;
48853;SDS011;34673;52.808;17.856;2023-07-16T12:03:28;1.98;;;1.50;;
48853;SDS011;34673;52.808;17.856;2023-07-16T12:05:55;2.10;;;1.40;;
48853;SDS011;34673;52.808;17.856;2023-07-16T12:08:22;2.30;;;1.50;;
48853;SDS011;34673;52.808;17.856;2023-07-16T12:10:49;2.10;;;1.42;;
48853;SDS011;34673;52.808;17.856;2023-07-16T12:13:17;3.28;;;1.38;;
48853;SDS011;34673;52.808;17.856;2023-07-16T12:15:44;2.38;;;1.50;;
48853;SDS011;34673;52.808;17.856;2023-07-16T12:18:11;1.98;;;1.20;;
48853;SDS011;34673;52.808;17.856;2023-07-16T12:20:39;1.95;;;1.23;;
48853;SDS011;34673;52.808;17.856;2023-07-16T12:25:36;2.53;;;1.20;;
48853;SDS011;34673;52.808;17.856;2023-07-16T12:28:03;2.65;;;1.15;;
48853;SDS011;34673;52.808;17.856;2023-07-16T12:30:31;2.70;;;1.40;;
48853;SDS011;34673;52.808;17.856;2023-07-16T12:32:59;3.50;;;1.33;;
48853;SDS011;34673;52.808;17.856;2023-07-16T12:35:26;2.50;;;1.55;;
48853;SDS011;34673;52.808;17.856;2023-07-16T12:37:53;2.30;;;1.30;;
48853;SDS011;34673;52.808;17.856;2023-07-16T12:40:20;2.72;;;1.60;;
48853;SDS011;34673;52.808;17.856;2023-07-16T12:42:48;3.03;;;1.30;;
48853;SDS011;34673;52.808;17.856;2023-07-16T12:45:15;2.53;;;1.50;;
48853;SDS011;34673;52.808;17.856;2023-07-16T12:47:42;2.70;;;1.50;;
48853;SDS011;34673;52.808;17.856;2023-07-16T12:50:09;2.40;;;1.70;;
48853;SDS011;34673;52.808;17.856;2023-07-16T12:52:37;3.65;;;1.55;;
48853;SDS011;34673;52.808;17.856;2023-07-16T12:55:04;2.95;;;1.52;;
48853;SDS011;34673;52.808;17.856;2023-07-16T12:57:31;2.22;;;1.30;;
48853;SDS011;34673;52.808;17.856;2023-07-16T12:59:59;3.90;;;1.50;;
48853;SDS011;34673;52.808;17.856;2023-07-16T13:02:26;2.70;;;1.60;;
48853;SDS011;34673;52.808;17.856;2023-07-16T13:04:53;2.90;;;1.50;;
48853;SDS011;34673;52.808;17.856;2023-07-16T13:07:20;2.20;;;1.27;;
48853;SDS011;34673;52.808;17.856;2023-07-16T13:09:48;2.45;;;1.40;;
48853;SDS011;34673;52.808;17.856;2023-07-16T13:12:26;2.13;;;1.30;;
48853;SDS011;34673;52.808;17.856;2023-07-16T13:14:54;2.00;;;1.30;;
48853;SDS011;34673;52.808;17.856;2023-07-16T13:17:21;2.67;;;1.40;;
48853;SDS011;34673;52.808;17.856;2023-07-16T13:19:48;1.90;;;1.30;;
48853;SDS011;34673;52.808;17.856;2023-07-16T13:22:15;2.10;;;1.38;;
48853;SDS011;34673;52.808;17.856;2023-07-16T13:24:42;5.20;;;1.50;;
48853;SDS011;34673;52.808;17.856;2023-07-16T13:27:18;3.00;;;1.40;;
48853;SDS011;34673;52.808;17.856;2023-07-16T13:29:47;2.50;;;1.40;;
48853;SDS011;34673;52.808;17.856;2023-07-16T13:32:15;1.70;;;1.20;;
48853;SDS011;34673;52.808;17.856;2023-07-16T13:34:42;2.35;;;1.38;;
48853;SDS011;34673;52.808;17.856;2023-07-16T13:37:10;1.77;;;1.30;;
48853;SDS011;34673;52.808;17.856;2023-07-16T13:39:37;4.47;;;1.27;;
48853;SDS011;34673;52.808;17.856;2023-07-16T13:42:05;2.08;;;1.10;;
48853;SDS011;34673;52.808;17.856;2023-07-16T13:44:48;2.00;;;1.42;;
48853;SDS011;34673;52.808;17.856;2023-07-16T13:47:16;1.98;;;1.33;;
48853;SDS011;34673;52.808;17.856;2023-07-16T13:49:43;2.00;;;1.20;;
48853;SDS011;34673;52.808;17.856;2023-07-16T13:52:10;1.80;;;1.30;;
48853;SDS011;34673;52.808;17.856;2023-07-16T13:54:37;2.45;;;1.27;;
48853;SDS011;34673;52.808;17.856;2023-07-16T13:57:08;2.53;;;1.20;;
48853;SDS011;34673;52.808;17.856;2023-07-16T13:59:35;4.63;;;1.20;;
48853;SDS011;34673;52.808;17.856;2023-07-16T14:02:03;2.95;;;1.48;;
48853;SDS011;34673;52.808;17.856;2023-07-16T14:04:31;3.15;;;1.30;;
48853;SDS011;34673;52.808;17.856;2023-07-16T14:06:58;4.30;;;1.30;;
48853;SDS011;34673;52.808;17.856;2023-07-16T14:09:26;1.70;;;1.10;;
48853;SDS011;34673;52.808;17.856;2023-07-16T14:11:53;2.55;;;1.40;;
48853;SDS011;34673;52.808;17.856;2023-07-16T14:14:21;1.60;;;1.00;;
48853;SDS011;34673;52.808;17.856;2023-07-16T14:16:49;3.28;;;1.20;;
48853;SDS011;34673;52.808;17.856;2023-07-16T14:19:16;2.78;;;1.13;;
48853;SDS011;34673;52.808;17.856;2023-07-16T14:21:44;1.70;;;1.10;;
48853;SDS011;34673;52.808;17.856;2023-07-16T14:24:11;2.22;;;1.20;;
48853;SDS011;34673;52.808;17.856;2023-07-16T14:26:38;3.22;;;1.20;;
48853;SDS011;34673;52.808;17.856;2023-07-16T14:29:05;4.45;;;1.40;;
48853;SDS011;34673;52.808;17.856;2023-07-16T14:31:33;2.40;;;1.30;;
48853;SDS011;34673;52.808;17.856;2023-07-16T14:34:00;2.03;;;1.30;;
48853;SDS011;34673;52.808;17.856;2023-07-16T14:36:27;2.03;;;1.20;;
48853;SDS011;34673;52.808;17.856;2023-07-16T14:38:55;4.72;;;1.40;;
48853;SDS011;34673;52.808;17.856;2023-07-16T14:41:22;4.25;;;1.05;;
48853;SDS011;34673;52.808;17.856;2023-07-16T14:43:49;2.22;;;1.42;;
48853;SDS011;34673;52.808;17.856;2023-07-16T14:46:17;2.08;;;1.20;;
48853;SDS011;34673;52.808;17.856;2023-07-16T14:48:45;2.25;;;1.42;;
48853;SDS011;34673;52.808;17.856;2023-07-16T14:51:12;2.05;;;1.17;;
48853;SDS011;34673;52.808;17.856;2023-07-16T14:53:40;3.25;;;1.45;;
48853;SDS011;34673;52.808;17.856;2023-07-16T14:56:07;2.45;;;1.27;;